createdAt,value
2022-11-15T00:00:46.749Z,150942.19
2022-11-15T00:03:23.483Z,150956.09
2022-11-15T00:05:49.707Z,150959.88
2022-11-15T00:08:15.801Z,150962.41
2022-11-15T00:10:42.237Z,150980.09
2022-11-15T00:13:11.218Z,151002.84
2022-11-15T00:15:41.182Z,151001.59
2022-11-15T00:18:12.876Z,151002.84
2022-11-15T00:20:38.771Z,151005.38
2022-11-15T00:23:04.877Z,151006.63
2022-11-15T00:25:31.037Z,151000.31
2022-11-15T00:27:58.189Z,151016.75
2022-11-15T00:30:24.291Z,150992.75
2022-11-15T00:32:50.327Z,150988.94
2022-11-15T00:35:16.076Z,150988.94
2022-11-15T00:37:41.911Z,150992.75
2022-11-15T00:40:08.848Z,150991.50
2022-11-15T00:42:34.617Z,150996.53
2022-11-15T00:45:00.386Z,150994.03
2022-11-15T00:47:26.153Z,150990.19
2022-11-15T00:49:51.911Z,150994.03
2022-11-15T00:52:17.676Z,150996.53
2022-11-15T00:54:43.444Z,151020.56
2022-11-15T00:57:09.341Z,151020.56
2022-11-15T00:59:35.131Z,151025.59
2022-11-15T01:02:01.403Z,151028.16
2022-11-15T01:04:27.406Z,151014.25
2022-11-15T01:06:53.983Z,151025.59
2022-11-15T01:09:19.943Z,151035.72
2022-11-15T01:11:45.842Z,151040.78
2022-11-15T01:14:11.607Z,151039.50
2022-11-15T01:16:37.348Z,151023.06
2022-11-15T01:19:03.532Z,151045.88
2022-11-15T01:21:29.443Z,151045.88
2022-11-15T01:23:56.344Z,151044.56
2022-11-15T01:26:24.099Z,151067.34
2022-11-15T01:28:50.568Z,151063.56
2022-11-15T01:31:18.922Z,151063.56
2022-11-15T01:33:44.876Z,151064.84
2022-11-15T01:36:17.023Z,151072.41
2022-11-15T01:38:42.848Z,151053.44
2022-11-15T01:41:20.129Z,151049.66
2022-11-15T01:43:49.543Z,151047.13
2022-11-15T01:46:15.216Z,151055.94
2022-11-15T01:48:41.017Z,151061.00
2022-11-15T01:51:11.738Z,151061.00
2022-11-15T01:53:40.102Z,151067.34
2022-11-15T01:56:09.866Z,151047.13
2022-11-15T01:58:36.162Z,151050.91
2022-11-15T02:01:02.031Z,151055.94
2022-11-15T02:03:40.456Z,151068.63
2022-11-15T02:06:06.284Z,151059.75
2022-11-15T02:08:31.992Z,151068.63
2022-11-15T02:10:57.732Z,151093.88
2022-11-15T02:13:23.720Z,151063.56
2022-11-15T02:15:57.982Z,151063.56
2022-11-15T02:18:35.022Z,151073.66
2022-11-15T02:21:22.692Z,151097.66
2022-11-15T02:24:03.437Z,151071.13
2022-11-15T02:26:47.909Z,151095.16
2022-11-15T02:29:22.515Z,151106.53
2022-11-15T02:32:01.125Z,151124.25
2022-11-15T02:34:38.358Z,151123.00
2022-11-15T02:37:15.786Z,151125.50
2022-11-15T02:39:50.971Z,151129.31
2022-11-15T02:42:43.580Z,151130.56
2022-11-15T02:45:13.618Z,151115.38
2022-11-15T02:47:44.011Z,151131.81
2022-11-15T02:50:16.047Z,151141.97
2022-11-15T02:52:45.518Z,151144.47
2022-11-15T02:55:33.055Z,151140.69
2022-11-15T02:58:15.286Z,151147.00
2022-11-15T03:01:09.493Z,151157.16
2022-11-15T03:03:50.566Z,151147.00
2022-11-15T03:06:28.099Z,151149.53
2022-11-15T03:09:11.438Z,151159.66
2022-11-15T03:11:48.422Z,151192.56
2022-11-15T03:14:29.369Z,151150.78
2022-11-15T03:17:21.033Z,151183.69
2022-11-15T03:20:06.121Z,151178.63
2022-11-15T03:22:37.886Z,151169.75
2022-11-15T03:25:08.819Z,151182.44
2022-11-15T03:27:42.110Z,151168.50
2022-11-15T03:30:09.471Z,151192.56
2022-11-15T03:32:40.507Z,151190.03
2022-11-15T03:35:10.608Z,151179.91
2022-11-15T03:38:01.338Z,151177.38
2022-11-15T03:40:42.120Z,151183.69
2022-11-15T03:43:16.495Z,151188.75
2022-11-15T03:45:56.154Z,151183.69
2022-11-15T03:48:26.716Z,151169.75
2022-11-15T03:50:52.742Z,151192.56
2022-11-15T03:53:18.556Z,151192.56
2022-11-15T03:55:44.302Z,151206.44
2022-11-15T03:58:10.188Z,151195.09
2022-11-15T04:00:36.055Z,151205.19
2022-11-15T04:03:02.041Z,151217.84
2022-11-15T04:05:27.840Z,151211.53
2022-11-15T04:07:53.571Z,151203.91
2022-11-15T04:10:19.871Z,151198.88
2022-11-15T04:12:49.347Z,151181.16
2022-11-15T04:15:18.008Z,151200.13
2022-11-15T04:17:49.595Z,151195.09
2022-11-15T04:20:41.360Z,151207.75
2022-11-15T04:23:28.924Z,151190.03
2022-11-15T04:25:56.628Z,151201.41
2022-11-15T04:28:22.998Z,151178.63
2022-11-15T04:30:48.721Z,151192.56
2022-11-15T04:33:15.006Z,151190.03
2022-11-15T04:35:40.890Z,151187.47
2022-11-15T04:38:09.171Z,151177.38
2022-11-15T04:40:36.834Z,151202.66
2022-11-15T04:43:04.180Z,151207.75
2022-11-15T04:45:30.454Z,151206.44
2022-11-15T04:47:56.262Z,151184.94
2022-11-15T04:50:22.020Z,151205.19
2022-11-15T04:52:52.991Z,151177.38
2022-11-15T04:55:19.072Z,151174.84
2022-11-15T04:57:44.851Z,151160.94
2022-11-15T05:00:13.876Z,151176.13
2022-11-15T05:02:58.241Z,151136.91
2022-11-15T05:05:24.671Z,151138.19
2022-11-15T05:07:50.690Z,151145.75
2022-11-15T05:10:16.964Z,151115.38
2022-11-15T05:12:42.914Z,151115.38
2022-11-15T05:15:09.249Z,151112.84
2022-11-15T05:17:34.975Z,151105.28
2022-11-15T05:20:00.744Z,151110.34
2022-11-15T05:22:27.824Z,151115.38
2022-11-15T05:24:53.710Z,151098.94
2022-11-15T05:27:19.518Z,151098.94
2022-11-15T05:29:45.284Z,151119.22
2022-11-15T05:32:12.092Z,151117.94
2022-11-15T05:34:37.900Z,151120.47
2022-11-15T05:37:03.693Z,151131.81
2022-11-15T05:39:29.479Z,151117.94
2022-11-15T05:42:04.594Z,151138.19
2022-11-15T05:44:31.485Z,151148.28
2022-11-15T05:46:57.593Z,151140.69
2022-11-15T05:49:26.941Z,151138.19
2022-11-15T05:51:54.200Z,151153.38
2022-11-15T05:54:22.164Z,151138.19
2022-11-15T05:56:49.150Z,151128.03
2022-11-15T05:59:15.078Z,151139.44
2022-11-15T06:01:41.222Z,151133.09
2022-11-15T06:04:07.145Z,151144.47
2022-11-15T06:06:32.908Z,151139.44
2022-11-15T06:08:58.684Z,151138.19
2022-11-15T06:11:24.484Z,151140.69
2022-11-15T06:13:50.301Z,151153.38
2022-11-15T06:16:16.136Z,151179.91
2022-11-15T06:18:41.998Z,151143.22
2022-11-15T06:21:07.772Z,151133.09
2022-11-15T06:23:34.970Z,151125.50
2022-11-15T06:26:02.266Z,151135.66
2022-11-15T06:28:32.450Z,151157.16
2022-11-15T06:31:09.690Z,151168.50
2022-11-15T06:33:35.566Z,151150.78
2022-11-15T06:36:06.312Z,151144.47
2022-11-15T06:38:32.223Z,151149.53
2022-11-15T06:41:06.142Z,151145.75
2022-11-15T06:43:32.871Z,151125.50
2022-11-15T06:46:00.301Z,151136.91
2022-11-15T06:48:26.930Z,151140.69
2022-11-15T06:50:54.015Z,151126.78
2022-11-15T06:53:20.082Z,151104.03
2022-11-15T06:55:45.895Z,151093.88
2022-11-15T06:58:11.716Z,151092.63
2022-11-15T07:00:37.570Z,151104.03
2022-11-15T07:03:03.638Z,151114.13
2022-11-15T07:05:29.778Z,151110.34
2022-11-15T07:07:57.633Z,151138.19
2022-11-15T07:10:25.451Z,151126.78
2022-11-15T07:12:52.167Z,151123.00
2022-11-15T07:15:19.617Z,151114.13
2022-11-15T07:17:45.622Z,151121.72
2022-11-15T07:20:13.546Z,151109.06
2022-11-15T07:22:40.339Z,151093.88
2022-11-15T07:25:06.865Z,151098.94
2022-11-15T07:27:33.191Z,151111.59
2022-11-15T07:29:59.402Z,151116.63
2022-11-15T07:32:25.737Z,151120.47
2022-11-15T07:34:51.518Z,151104.03
2022-11-15T07:37:17.264Z,151112.84
2022-11-15T07:39:43.567Z,151106.53
2022-11-15T07:42:28.504Z,151116.63
2022-11-15T07:44:54.335Z,151106.53
2022-11-15T07:47:20.774Z,151107.81
2022-11-15T07:49:47.070Z,151121.72
2022-11-15T07:52:13.863Z,151105.28
2022-11-15T07:54:40.110Z,151085.06
2022-11-15T07:57:07.973Z,151095.16
2022-11-15T07:59:35.208Z,151105.28
2022-11-15T08:02:01.925Z,151104.03
2022-11-15T08:04:27.779Z,151135.66
2022-11-15T08:06:53.630Z,151125.50
2022-11-15T08:09:19.385Z,151129.31
2022-11-15T08:11:45.162Z,151133.09
2022-11-15T08:14:11.017Z,151135.66
2022-11-15T08:16:36.845Z,151168.50
2022-11-15T08:19:02.716Z,151173.59
2022-11-15T08:21:28.596Z,151190.03
2022-11-15T08:23:54.440Z,151217.84
2022-11-15T08:26:20.276Z,151253.28
2022-11-15T08:28:46.085Z,151272.25
2022-11-15T08:31:21.030Z,151272.25
2022-11-15T08:33:46.828Z,151316.56
2022-11-15T08:36:15.715Z,151346.91
2022-11-15T08:38:41.778Z,151348.16
2022-11-15T08:41:12.737Z,151346.91
2022-11-15T08:43:38.541Z,151319.09
2022-11-15T08:46:04.335Z,151282.41
2022-11-15T08:48:30.463Z,151278.56
2022-11-15T08:50:57.368Z,151319.09
2022-11-15T08:53:23.341Z,151260.84
2022-11-15T08:55:49.096Z,151252.00
2022-11-15T08:58:14.923Z,151238.09
2022-11-15T09:00:40.800Z,151193.84
2022-11-15T09:03:07.465Z,151235.56
2022-11-15T09:05:36.341Z,151226.72
2022-11-15T09:08:13.930Z,151277.31
2022-11-15T09:10:47.992Z,151283.66
2022-11-15T09:13:14.182Z,151287.44
2022-11-15T09:15:40.072Z,151265.94
2022-11-15T09:18:05.892Z,151335.53
2022-11-15T09:20:31.847Z,151340.59
2022-11-15T09:23:01.307Z,151354.56
2022-11-15T09:25:27.820Z,151344.38
2022-11-15T09:27:53.862Z,151301.38
2022-11-15T09:30:19.703Z,151345.66
2022-11-15T09:32:45.481Z,151293.75
2022-11-15T09:35:11.291Z,151279.88
2022-11-15T09:37:37.886Z,151336.81
2022-11-15T09:40:04.242Z,151363.41
2022-11-15T09:42:56.237Z,151691.38
2022-11-15T09:45:21.969Z,151678.72
2022-11-15T09:48:00.095Z,151730.69
2022-11-15T09:50:51.882Z,151725.56
2022-11-15T09:53:50.810Z,151857.44
2022-11-15T09:56:22.300Z,151664.78
2022-11-15T09:59:03.284Z,152150.41
2022-11-15T10:01:44.281Z,152171.94
2022-11-15T10:04:11.943Z,152009.56
2022-11-15T10:06:47.554Z,151829.53
2022-11-15T10:09:22.906Z,151761.09
2022-11-15T10:11:49.951Z,152015.88
2022-11-15T10:14:18.939Z,152173.22
2022-11-15T10:16:44.662Z,152499.44
2022-11-15T10:19:52.543Z,153297.81
2022-11-15T10:22:36.331Z,153462.06
2022-11-15T10:25:22.273Z,153520.66
2022-11-15T10:27:54.850Z,154073.66
2022-11-15T10:30:21.225Z,153602.13
2022-11-15T10:32:48.192Z,153595.78
2022-11-15T10:35:18.263Z,153648.00
2022-11-15T10:37:44.035Z,154226.75
2022-11-15T10:40:24.236Z,154363.28
2022-11-15T10:43:12.924Z,154432.19
2022-11-15T10:45:38.774Z,154428.38
2022-11-15T10:48:13.379Z,154724.59
2022-11-15T10:50:44.663Z,154381.13
2022-11-15T10:53:42.189Z,154579.00
2022-11-15T10:56:15.999Z,154363.28
2022-11-15T10:58:44.438Z,154236.94
2022-11-15T11:01:13.292Z,154637.72
2022-11-15T11:03:41.093Z,154921.34
2022-11-15T11:06:13.180Z,154580.28
2022-11-15T11:08:39.603Z,154460.25
2022-11-15T11:11:07.265Z,154596.88
2022-11-15T11:13:38.241Z,154679.88
2022-11-15T11:16:33.904Z,154501.13
2022-11-15T11:19:18.849Z,153675.97
2022-11-15T11:22:12.614Z,153899.00
2022-11-15T11:24:53.450Z,154023.94
2022-11-15T11:27:43.795Z,154003.53
2022-11-15T11:30:16.525Z,154029.06
2022-11-15T11:32:55.552Z,153775.41
2022-11-15T11:35:25.050Z,153704.06
2022-11-15T11:38:11.283Z,153459.50
2022-11-15T11:40:45.563Z,153712.97
2022-11-15T11:43:14.019Z,153571.53
2022-11-15T11:45:56.444Z,153667.09
2022-11-15T11:48:45.310Z,153964.03
2022-11-15T11:51:23.634Z,153831.47
2022-11-15T11:53:57.567Z,154171.94
2022-11-15T11:56:29.458Z,154345.41
2022-11-15T11:59:02.587Z,154423.22
2022-11-15T12:01:54.998Z,154092.78
2022-11-15T12:04:23.863Z,154550.91
2022-11-15T12:06:59.143Z,154432.19
2022-11-15T12:09:33.935Z,154645.41
2022-11-15T12:12:19.754Z,154704.19
2022-11-15T12:15:00.463Z,154561.13
2022-11-15T12:17:32.355Z,155015.88
2022-11-15T12:20:00.634Z,154547.09
2022-11-15T12:22:55.630Z,154778.25
2022-11-15T12:25:26.303Z,154198.69
2022-11-15T12:28:08.782Z,153677.25
2022-11-15T12:30:49.136Z,152904.78
2022-11-15T12:33:46.834Z,152536.25
2022-11-15T12:36:21.378Z,152278.53
2022-11-15T12:38:53.233Z,152268.34
2022-11-15T12:41:20.226Z,152192.25
2022-11-15T12:43:48.002Z,152094.59
2022-11-15T12:46:42.986Z,151988.00
2022-11-15T12:49:37.109Z,151962.63
2022-11-15T12:52:03.753Z,152037.47
2022-11-15T12:54:32.565Z,152041.28
2022-11-15T12:57:04.558Z,152021.00
2022-11-15T12:59:48.574Z,152066.63
2022-11-15T13:02:43.836Z,152057.75
2022-11-15T13:05:18.720Z,152076.78
2022-11-15T13:07:44.753Z,151908.13
2022-11-15T13:10:10.498Z,151887.84
2022-11-15T13:12:41.173Z,151877.72
2022-11-15T13:15:12.726Z,151872.63
2022-11-15T13:17:42.565Z,151866.31
2022-11-15T13:20:08.279Z,151830.81
2022-11-15T13:22:51.484Z,151796.59
2022-11-15T13:25:19.852Z,151851.09
2022-11-15T13:27:50.692Z,151882.78
2022-11-15T13:30:22.761Z,151969.00
2022-11-15T13:32:49.153Z,151786.47
2022-11-15T13:35:26.936Z,151790.25
2022-11-15T13:37:54.682Z,151715.47
2022-11-15T13:40:30.655Z,151714.22
2022-11-15T13:42:58.046Z,151764.91
2022-11-15T13:45:24.575Z,151752.25
2022-11-15T13:47:56.502Z,151710.38
2022-11-15T13:50:27.702Z,151678.72
2022-11-15T13:52:57.413Z,151658.47
2022-11-15T13:55:24.526Z,151672.38
2022-11-15T13:58:00.362Z,151706.56
2022-11-15T14:00:43.579Z,151693.94
2022-11-15T14:03:14.435Z,151687.56
2022-11-15T14:05:40.839Z,151716.72
2022-11-15T14:08:24.004Z,151725.56
2022-11-15T14:11:25.949Z,151748.47
2022-11-15T14:14:09.852Z,151715.47
2022-11-15T14:16:41.946Z,151712.94
2022-11-15T14:19:12.641Z,151724.31
2022-11-15T14:22:16.631Z,151729.41
2022-11-15T14:24:47.325Z,151726.84
2022-11-15T14:27:27.137Z,151723.06
2022-11-15T14:29:53.315Z,151659.72
2022-11-15T14:32:22.376Z,151683.78
2022-11-15T14:34:59.352Z,151695.19
2022-11-15T14:37:26.688Z,151693.94
2022-11-15T14:39:53.731Z,151693.94
2022-11-15T14:42:20.460Z,151693.94
2022-11-15T14:44:46.672Z,151653.38
2022-11-15T14:47:13.020Z,151647.06
2022-11-15T14:49:38.892Z,151644.53
2022-11-15T14:52:31.532Z,151650.84
2022-11-15T14:54:59.440Z,151647.06
2022-11-15T14:57:25.817Z,151621.75
2022-11-15T14:59:52.133Z,151573.59
2022-11-15T15:02:23.547Z,151583.69
2022-11-15T15:04:50.242Z,151557.13
2022-11-15T15:07:16.712Z,151565.97
2022-11-15T15:09:43.096Z,151569.81
2022-11-15T15:12:17.887Z,151565.97
2022-11-15T15:14:44.407Z,151552.06
2022-11-15T15:17:10.411Z,151535.59
2022-11-15T15:19:36.464Z,151554.59
2022-11-15T15:22:02.638Z,151554.59
2022-11-15T15:24:28.444Z,151522.94
2022-11-15T15:26:54.254Z,151511.50
2022-11-15T15:29:20.047Z,151501.41
2022-11-15T15:31:45.858Z,151491.25
2022-11-15T15:34:16.621Z,151511.50
2022-11-15T15:36:42.874Z,151530.50
2022-11-15T15:39:11.538Z,151525.47
2022-11-15T15:41:37.322Z,151505.19
2022-11-15T15:44:03.181Z,151472.28
2022-11-15T15:46:28.997Z,151507.72
2022-11-15T15:48:54.871Z,151487.47
2022-11-15T15:51:21.133Z,151495.06
2022-11-15T15:53:48.016Z,151476.06
2022-11-15T15:56:13.893Z,151452.03
2022-11-15T15:58:39.668Z,151436.81
2022-11-15T16:01:05.921Z,151417.84
2022-11-15T16:03:31.798Z,151433.03
2022-11-15T16:05:58.546Z,151436.81
2022-11-15T16:08:26.779Z,151419.09
2022-11-15T16:10:52.703Z,151436.81
2022-11-15T16:13:18.616Z,151439.34
2022-11-15T16:15:47.872Z,151446.97
2022-11-15T16:18:16.757Z,151460.91
2022-11-15T16:20:45.786Z,151441.91
2022-11-15T16:23:17.415Z,151407.75
2022-11-15T16:25:53.215Z,151403.91
2022-11-15T16:28:24.314Z,151400.13
2022-11-15T16:31:09.538Z,151410.25
2022-11-15T16:33:35.862Z,151405.22
2022-11-15T16:36:03.621Z,151421.63
2022-11-15T16:38:29.644Z,151391.28
2022-11-15T16:40:55.738Z,151374.81
2022-11-15T16:43:21.584Z,151387.50
2022-11-15T16:45:49.348Z,151382.41
2022-11-15T16:48:27.324Z,151421.63
2022-11-15T16:50:57.740Z,151414.06
2022-11-15T16:53:24.762Z,151401.38
2022-11-15T16:55:50.541Z,151403.91
2022-11-15T16:58:16.364Z,151390.00
2022-11-15T17:00:42.232Z,151397.59
2022-11-15T17:03:08.167Z,151401.38
2022-11-15T17:05:33.997Z,151403.91
2022-11-15T17:07:59.864Z,151397.59
2022-11-15T17:10:26.482Z,151414.06
2022-11-15T17:12:54.461Z,151428.00
2022-11-15T17:15:20.820Z,151431.78
2022-11-15T17:17:53.871Z,151406.47
2022-11-15T17:20:23.015Z,151420.38
2022-11-15T17:22:48.862Z,151417.84
2022-11-15T17:25:14.840Z,151406.47
2022-11-15T17:27:40.933Z,151376.09
2022-11-15T17:30:07.713Z,151381.13
2022-11-15T17:32:37.121Z,151402.66
2022-11-15T17:35:03.912Z,151396.34
2022-11-15T17:37:29.816Z,151386.19
2022-11-15T17:39:55.569Z,151395.06
2022-11-15T17:42:21.436Z,151377.34
2022-11-15T17:44:47.202Z,151377.34
2022-11-15T17:47:13.014Z,151401.38
2022-11-15T17:49:40.051Z,151403.91
2022-11-15T17:52:06.523Z,151371.03
2022-11-15T17:54:32.559Z,151369.78
2022-11-15T17:56:58.370Z,151378.59
2022-11-15T17:59:24.175Z,151373.56
2022-11-15T18:01:50.067Z,151355.84
2022-11-15T18:04:15.813Z,151368.47
2022-11-15T18:06:42.220Z,151374.81
2022-11-15T18:09:08.243Z,151363.41
2022-11-15T18:11:40.329Z,151365.94
2022-11-15T18:14:15.512Z,151360.88
2022-11-15T18:16:41.808Z,151367.19
2022-11-15T18:19:13.188Z,151365.94
2022-11-15T18:21:56.956Z,151392.53
2022-11-15T18:24:29.367Z,151392.53
2022-11-15T18:26:56.107Z,151371.03
2022-11-15T18:29:23.850Z,151384.91
2022-11-15T18:31:54.236Z,151371.03
2022-11-15T18:34:21.829Z,151367.19
2022-11-15T18:36:50.750Z,151384.91
2022-11-15T18:39:16.623Z,151357.09
2022-11-15T18:41:44.091Z,151354.56
2022-11-15T18:44:10.026Z,151365.94
2022-11-15T18:46:35.949Z,151372.28
2022-11-15T18:49:02.182Z,151349.44
2022-11-15T18:51:31.698Z,151395.06
2022-11-15T18:54:00.931Z,151360.88
2022-11-15T18:56:29.157Z,151343.13
2022-11-15T18:58:57.286Z,151369.78
2022-11-15T19:01:25.780Z,151343.13
2022-11-15T19:03:53.935Z,151352.00
2022-11-15T19:06:28.866Z,151331.72
2022-11-15T19:08:57.299Z,151349.44
2022-11-15T19:11:27.374Z,151357.09
2022-11-15T19:14:04.697Z,151369.78
2022-11-15T19:16:33.447Z,151369.78
2022-11-15T19:19:04.890Z,151362.16
2022-11-15T19:21:31.325Z,151349.44
2022-11-15T19:23:58.294Z,151360.88
2022-11-15T19:26:24.929Z,151349.44
2022-11-15T19:28:52.769Z,151346.91
2022-11-15T19:31:19.741Z,151349.44
2022-11-15T19:33:45.871Z,151367.19
2022-11-15T19:36:14.539Z,151349.44
2022-11-15T19:38:40.951Z,151355.84
2022-11-15T19:41:10.167Z,151341.84
2022-11-15T19:43:36.373Z,151354.56
2022-11-15T19:46:05.518Z,151390.00
2022-11-15T19:48:33.637Z,151352.00
2022-11-15T19:51:08.830Z,151357.09
2022-11-15T19:53:35.780Z,151358.38
2022-11-15T19:56:04.060Z,151358.38
2022-11-15T19:58:30.841Z,151364.69
2022-11-15T20:01:06.417Z,151362.16
2022-11-15T20:03:34.253Z,151357.09
2022-11-15T20:06:09.882Z,151345.66
2022-11-15T20:08:36.522Z,151344.38
2022-11-15T20:11:04.498Z,151315.31
2022-11-15T20:13:31.068Z,151321.63
2022-11-15T20:15:57.485Z,151306.41
2022-11-15T20:18:24.929Z,151300.13
2022-11-15T20:20:51.226Z,151307.69
2022-11-15T20:23:17.765Z,151274.78
2022-11-15T20:25:45.697Z,151265.94
2022-11-15T20:28:16.824Z,151287.44
2022-11-15T20:30:44.522Z,151263.41
2022-11-15T20:33:11.378Z,151289.97
2022-11-15T20:35:37.276Z,151257.06
2022-11-15T20:38:03.188Z,151292.50
2022-11-15T20:40:28.981Z,151262.16
2022-11-15T20:42:54.847Z,151300.13
2022-11-15T20:45:20.672Z,151274.78
2022-11-15T20:47:46.544Z,151276.03
2022-11-15T20:50:40.569Z,151265.94
2022-11-15T20:52:58.233Z,151279.88
2022-11-15T20:55:24.631Z,151249.50
2022-11-15T20:57:50.431Z,151238.09
2022-11-15T21:00:21.639Z,151248.22
2022-11-15T21:02:47.763Z,151260.84
2022-11-15T21:05:13.740Z,151241.88
2022-11-15T21:07:39.605Z,151246.97
2022-11-15T21:10:24.040Z,151265.94
2022-11-15T21:12:50.352Z,151254.53
2022-11-15T21:15:16.821Z,151238.09
2022-11-15T21:17:42.720Z,151212.81
2022-11-15T21:20:09.071Z,151219.09
2022-11-15T21:22:34.911Z,151226.72
2022-11-15T21:25:00.749Z,151219.09
2022-11-15T21:27:27.215Z,151231.78
2022-11-15T21:29:53.079Z,151216.59
2022-11-15T21:32:19.011Z,151221.63
2022-11-15T21:34:44.912Z,151240.59
2022-11-15T21:37:10.836Z,151228.00
2022-11-15T21:39:37.697Z,151235.56
2022-11-15T21:42:03.884Z,151239.34
2022-11-15T21:44:29.790Z,151249.50
2022-11-15T21:46:55.526Z,151248.22
2022-11-15T21:49:21.771Z,151255.81
2022-11-15T21:51:48.175Z,151248.22
2022-11-15T21:54:14.459Z,151244.44
2022-11-15T21:56:42.452Z,151252.00
2022-11-15T21:59:08.332Z,151252.00
2022-11-15T22:01:52.345Z,151240.59
2022-11-15T22:04:18.475Z,151224.16
2022-11-15T22:06:44.438Z,151231.78
2022-11-15T22:09:10.373Z,151236.81
2022-11-15T22:11:36.287Z,151228.00
2022-11-15T22:14:02.670Z,151243.19
2022-11-15T22:16:28.612Z,151245.69
2022-11-15T22:18:54.541Z,151233.03
2022-11-15T22:21:20.741Z,151224.16
2022-11-15T22:23:46.602Z,151203.91
2022-11-15T22:26:19.415Z,151205.19
2022-11-15T22:28:47.991Z,151202.66
2022-11-15T22:31:13.734Z,151205.19
2022-11-15T22:33:40.229Z,151228.00
2022-11-15T22:36:07.146Z,151217.84
2022-11-15T22:38:33.374Z,151229.25
2022-11-15T22:40:59.736Z,151207.75
2022-11-15T22:43:26.544Z,151197.63
2022-11-15T22:45:54.577Z,151206.44
2022-11-15T22:48:35.748Z,151220.38
2022-11-15T22:51:03.681Z,151230.50
2022-11-15T22:53:29.987Z,151219.09
2022-11-15T22:55:58.010Z,151203.91
2022-11-15T22:58:25.672Z,151212.81
2022-11-15T23:00:53.702Z,151203.91
2022-11-15T23:03:20.479Z,151174.84
2022-11-15T23:05:47.337Z,151186.22
2022-11-15T23:08:13.588Z,151207.75
2022-11-15T23:10:58.534Z,151209.03
2022-11-15T23:13:26.580Z,151174.84
2022-11-15T23:16:19.981Z,151163.47
2022-11-15T23:18:45.852Z,151176.13
2022-11-15T23:21:13.017Z,151190.03
2022-11-15T23:23:39.438Z,151195.09
2022-11-15T23:26:05.695Z,151192.56
2022-11-15T23:28:33.097Z,151193.84
2022-11-15T23:31:25.327Z,151198.88
2022-11-15T23:33:57.136Z,151205.19
2022-11-15T23:36:24.657Z,151197.63
2022-11-15T23:38:50.596Z,151195.09
2022-11-15T23:41:17.082Z,151182.44
2022-11-15T23:43:42.966Z,151202.66
2022-11-15T23:46:08.823Z,151216.59
2022-11-15T23:48:34.951Z,151215.31
2022-11-15T23:51:01.036Z,151210.28
2022-11-15T23:53:26.895Z,151211.53
2022-11-15T23:56:10.281Z,151210.28
2022-11-15T23:58:36.718Z,151238.09
